sensor_id;sensor_type;location;lat;lon;timestamp;temperature;humidity
8862;DHT22;4799;50.996;4.754;2023-10-13T00:02:02;18.10;99.90
8862;DHT22;4799;50.996;4.754;2023-10-13T00:04:31;18.00;99.90
8862;DHT22;4799;50.996;4.754;2023-10-13T00:07:01;18.00;99.90
8862;DHT22;4799;50.996;4.754;2023-10-13T00:09:28;18.00;99.90
8862;DHT22;4799;50.996;4.754;2023-10-13T00:12:04;18.00;99.90
8862;DHT22;4799;50.996;4.754;2023-10-13T00:14:33;18.00;99.90
8862;DHT22;4799;50.996;4.754;2023-10-13T00:17:03;17.90;99.90
8862;DHT22;4799;50.996;4.754;2023-10-13T00:19:41;17.90;99.90
8862;DHT22;4799;50.996;4.754;2023-10-13T00:22:17;17.90;99.90
8862;DHT22;4799;50.996;4.754;2023-10-13T00:24:48;17.90;99.90
8862;DHT22;4799;50.996;4.754;2023-10-13T00:27:20;17.90;99.90
8862;DHT22;4799;50.996;4.754;2023-10-13T00:30:02;17.90;99.90
8862;DHT22;4799;50.996;4.754;2023-10-13T00:32:49;17.80;99.90
8862;DHT22;4799;50.996;4.754;2023-10-13T00:35:28;17.80;99.90
8862;DHT22;4799;50.996;4.754;2023-10-13T00:37:57;17.80;99.90
8862;DHT22;4799;50.996;4.754;2023-10-13T00:40:25;17.80;99.90
8862;DHT22;4799;50.996;4.754;2023-10-13T00:43:01;17.80;99.90
8862;DHT22;4799;50.996;4.754;2023-10-13T00:45:46;17.80;99.90
8862;DHT22;4799;50.996;4.754;2023-10-13T00:48:40;17.80;99.90
8862;DHT22;4799;50.996;4.754;2023-10-13T00:51:20;17.80;99.90
8862;DHT22;4799;50.996;4.754;2023-10-13T00:54:05;17.80;99.90
8862;DHT22;4799;50.996;4.754;2023-10-13T00:56:40;17.80;99.90
8862;DHT22;4799;50.996;4.754;2023-10-13T00:59:17;17.80;99.90
8862;DHT22;4799;50.996;4.754;2023-10-13T01:01:43;17.80;99.90
8862;DHT22;4799;50.996;4.754;2023-10-13T01:04:10;17.80;99.90
8862;DHT22;4799;50.996;4.754;2023-10-13T01:06:38;17.80;99.90
8862;DHT22;4799;50.996;4.754;2023-10-13T01:09:06;17.80;99.90
8862;DHT22;4799;50.996;4.754;2023-10-13T01:11:49;17.80;99.90
8862;DHT22;4799;50.996;4.754;2023-10-13T01:14:18;17.80;99.90
8862;DHT22;4799;50.996;4.754;2023-10-13T01:16:46;17.80;99.90
8862;DHT22;4799;50.996;4.754;2023-10-13T01:19:16;17.90;99.90
8862;DHT22;4799;50.996;4.754;2023-10-13T01:21:52;17.90;99.90
8862;DHT22;4799;50.996;4.754;2023-10-13T01:24:28;17.80;99.90
8862;DHT22;4799;50.996;4.754;2023-10-13T01:26:57;17.90;99.90
8862;DHT22;4799;50.996;4.754;2023-10-13T01:29:29;17.90;99.90
8862;DHT22;4799;50.996;4.754;2023-10-13T01:31:55;17.90;99.90
8862;DHT22;4799;50.996;4.754;2023-10-13T01:34:21;17.90;99.90
8862;DHT22;4799;50.996;4.754;2023-10-13T01:36:53;17.90;99.90
8862;DHT22;4799;50.996;4.754;2023-10-13T01:39:25;17.90;99.90
8862;DHT22;4799;50.996;4.754;2023-10-13T01:41:55;17.90;99.90
8862;DHT22;4799;50.996;4.754;2023-10-13T01:44:22;17.90;99.90
8862;DHT22;4799;50.996;4.754;2023-10-13T01:46:48;17.90;99.90
8862;DHT22;4799;50.996;4.754;2023-10-13T01:49:14;17.90;99.90
8862;DHT22;4799;50.996;4.754;2023-10-13T01:51:43;18.00;99.90
8862;DHT22;4799;50.996;4.754;2023-10-13T01:54:13;18.00;99.90
8862;DHT22;4799;50.996;4.754;2023-10-13T01:56:39;18.00;99.90
8862;DHT22;4799;50.996;4.754;2023-10-13T01:59:11;18.00;99.90
8862;DHT22;4799;50.996;4.754;2023-10-13T02:01:37;18.00;99.90
8862;DHT22;4799;50.996;4.754;2023-10-13T02:04:04;18.00;99.90
8862;DHT22;4799;50.996;4.754;2023-10-13T02:06:31;18.00;99.90
8862;DHT22;4799;50.996;4.754;2023-10-13T02:09:10;18.00;99.90
8862;DHT22;4799;50.996;4.754;2023-10-13T02:11:43;18.10;99.90
8862;DHT22;4799;50.996;4.754;2023-10-13T02:14:11;18.10;99.90
8862;DHT22;4799;50.996;4.754;2023-10-13T02:16:38;18.10;99.90
8862;DHT22;4799;50.996;4.754;2023-10-13T02:19:04;18.00;99.90
8862;DHT22;4799;50.996;4.754;2023-10-13T02:21:31;18.10;99.90
8862;DHT22;4799;50.996;4.754;2023-10-13T02:24:00;18.00;99.90
8862;DHT22;4799;50.996;4.754;2023-10-13T02:26:32;18.10;99.90
8862;DHT22;4799;50.996;4.754;2023-10-13T02:29:04;18.00;99.90
8862;DHT22;4799;50.996;4.754;2023-10-13T02:31:37;18.00;99.90
8862;DHT22;4799;50.996;4.754;2023-10-13T02:34:03;18.00;99.90
8862;DHT22;4799;50.996;4.754;2023-10-13T02:36:38;18.00;99.90
8862;DHT22;4799;50.996;4.754;2023-10-13T02:39:18;18.00;99.90
8862;DHT22;4799;50.996;4.754;2023-10-13T02:41:53;18.00;99.90
8862;DHT22;4799;50.996;4.754;2023-10-13T02:44:21;18.00;99.90
8862;DHT22;4799;50.996;4.754;2023-10-13T02:46:54;18.00;99.90
8862;DHT22;4799;50.996;4.754;2023-10-13T02:49:26;18.00;99.90
8862;DHT22;4799;50.996;4.754;2023-10-13T02:51:53;18.00;99.90
8862;DHT22;4799;50.996;4.754;2023-10-13T02:54:21;18.00;99.90
8862;DHT22;4799;50.996;4.754;2023-10-13T02:56:47;18.00;99.90
8862;DHT22;4799;50.996;4.754;2023-10-13T02:59:31;18.00;99.90
8862;DHT22;4799;50.996;4.754;2023-10-13T03:02:04;18.00;99.90
8862;DHT22;4799;50.996;4.754;2023-10-13T03:04:47;18.00;99.90
8862;DHT22;4799;50.996;4.754;2023-10-13T03:07:13;18.10;99.90
8862;DHT22;4799;50.996;4.754;2023-10-13T03:09:44;18.00;99.90
8862;DHT22;4799;50.996;4.754;2023-10-13T03:12:19;18.10;99.90
8862;DHT22;4799;50.996;4.754;2023-10-13T03:14:45;18.00;99.90
8862;DHT22;4799;50.996;4.754;2023-10-13T03:17:14;18.00;99.90
8862;DHT22;4799;50.996;4.754;2023-10-13T03:19:46;18.00;99.90
8862;DHT22;4799;50.996;4.754;2023-10-13T03:22:15;18.10;99.90
8862;DHT22;4799;50.996;4.754;2023-10-13T03:24:43;18.00;99.90
8862;DHT22;4799;50.996;4.754;2023-10-13T03:27:18;18.00;99.90
8862;DHT22;4799;50.996;4.754;2023-10-13T03:29:49;18.10;99.90
8862;DHT22;4799;50.996;4.754;2023-10-13T03:32:20;18.10;99.90
8862;DHT22;4799;50.996;4.754;2023-10-13T03:34:46;18.00;99.90
8862;DHT22;4799;50.996;4.754;2023-10-13T03:37:24;18.00;99.90
8862;DHT22;4799;50.996;4.754;2023-10-13T03:40:12;18.10;99.90
8862;DHT22;4799;50.996;4.754;2023-10-13T03:42:47;18.00;99.90
8862;DHT22;4799;50.996;4.754;2023-10-13T03:45:36;18.00;99.90
8862;DHT22;4799;50.996;4.754;2023-10-13T03:50:40;18.10;99.90
8862;DHT22;4799;50.996;4.754;2023-10-13T03:53:25;18.00;99.90
8862;DHT22;4799;50.996;4.754;2023-10-13T03:55:51;18.10;99.90
8862;DHT22;4799;50.996;4.754;2023-10-13T03:58:34;18.10;99.90
8862;DHT22;4799;50.996;4.754;2023-10-13T04:01:00;18.10;99.90
8862;DHT22;4799;50.996;4.754;2023-10-13T04:03:26;18.10;99.90
8862;DHT22;4799;50.996;4.754;2023-10-13T04:06:08;18.10;99.90
8862;DHT22;4799;50.996;4.754;2023-10-13T04:08:41;18.10;99.90
8862;DHT22;4799;50.996;4.754;2023-10-13T04:11:36;18.10;99.90
8862;DHT22;4799;50.996;4.754;2023-10-13T04:14:20;18.10;99.90
8862;DHT22;4799;50.996;4.754;2023-10-13T04:17:08;18.10;99.90
8862;DHT22;4799;50.996;4.754;2023-10-13T04:19:40;18.10;99.90
8862;DHT22;4799;50.996;4.754;2023-10-13T04:22:40;18.10;99.90
8862;DHT22;4799;50.996;4.754;2023-10-13T04:25:22;18.10;99.90
8862;DHT22;4799;50.996;4.754;2023-10-13T04:27:54;18.10;99.90
8862;DHT22;4799;50.996;4.754;2023-10-13T04:30:45;18.10;99.90
8862;DHT22;4799;50.996;4.754;2023-10-13T04:33:33;18.10;99.90
8862;DHT22;4799;50.996;4.754;2023-10-13T04:36:05;18.10;99.90
8862;DHT22;4799;50.996;4.754;2023-10-13T04:38:51;18.10;99.90
8862;DHT22;4799;50.996;4.754;2023-10-13T04:41:32;18.10;99.90
8862;DHT22;4799;50.996;4.754;2023-10-13T04:44:11;18.10;99.90
8862;DHT22;4799;50.996;4.754;2023-10-13T04:46:57;18.10;99.90
8862;DHT22;4799;50.996;4.754;2023-10-13T04:49:27;18.10;99.90
8862;DHT22;4799;50.996;4.754;2023-10-13T04:52:11;18.10;99.90
8862;DHT22;4799;50.996;4.754;2023-10-13T04:54:39;18.10;99.90
8862;DHT22;4799;50.996;4.754;2023-10-13T04:57:15;18.10;99.90
8862;DHT22;4799;50.996;4.754;2023-10-13T05:00:14;18.10;99.90
8862;DHT22;4799;50.996;4.754;2023-10-13T05:02:44;18.10;99.90
8862;DHT22;4799;50.996;4.754;2023-10-13T05:05:25;18.10;99.90
8862;DHT22;4799;50.996;4.754;2023-10-13T05:07:51;18.10;99.90
8862;DHT22;4799;50.996;4.754;2023-10-13T05:10:37;18.10;99.90
8862;DHT22;4799;50.996;4.754;2023-10-13T05:13:21;18.10;99.90
8862;DHT22;4799;50.996;4.754;2023-10-13T05:16:05;18.00;99.90
8862;DHT22;4799;50.996;4.754;2023-10-13T05:18:50;18.00;99.90
8862;DHT22;4799;50.996;4.754;2023-10-13T05:21:35;18.00;99.90
8862;DHT22;4799;50.996;4.754;2023-10-13T05:24:19;18.00;99.90
8862;DHT22;4799;50.996;4.754;2023-10-13T05:27:03;18.00;99.90
8862;DHT22;4799;50.996;4.754;2023-10-13T05:29:48;18.00;99.90
8862;DHT22;4799;50.996;4.754;2023-10-13T05:32:32;18.00;99.90
8862;DHT22;4799;50.996;4.754;2023-10-13T05:35:21;18.00;99.90
8862;DHT22;4799;50.996;4.754;2023-10-13T05:38:06;18.00;99.90
8862;DHT22;4799;50.996;4.754;2023-10-13T05:43:42;18.00;99.90
8862;DHT22;4799;50.996;4.754;2023-10-13T05:46:26;18.00;99.90
8862;DHT22;4799;50.996;4.754;2023-10-13T05:48:56;18.00;99.90
8862;DHT22;4799;50.996;4.754;2023-10-13T05:51:25;18.00;99.90
8862;DHT22;4799;50.996;4.754;2023-10-13T05:54:13;18.00;99.90
8862;DHT22;4799;50.996;4.754;2023-10-13T05:56:50;18.00;99.90
8862;DHT22;4799;50.996;4.754;2023-10-13T05:59:37;17.90;99.90
8862;DHT22;4799;50.996;4.754;2023-10-13T06:02:23;17.90;99.90
8862;DHT22;4799;50.996;4.754;2023-10-13T06:05:10;17.80;99.90
8862;DHT22;4799;50.996;4.754;2023-10-13T06:07:55;17.80;99.90
8862;DHT22;4799;50.996;4.754;2023-10-13T06:10:41;17.80;99.90
8862;DHT22;4799;50.996;4.754;2023-10-13T06:13:26;17.80;99.90
8862;DHT22;4799;50.996;4.754;2023-10-13T06:16:11;17.80;99.90
8862;DHT22;4799;50.996;4.754;2023-10-13T06:18:55;17.90;99.90
8862;DHT22;4799;50.996;4.754;2023-10-13T06:21:40;17.90;99.90
8862;DHT22;4799;50.996;4.754;2023-10-13T06:24:25;17.90;99.90
8862;DHT22;4799;50.996;4.754;2023-10-13T06:27:09;18.00;99.90
8862;DHT22;4799;50.996;4.754;2023-10-13T06:29:54;18.00;99.90
8862;DHT22;4799;50.996;4.754;2023-10-13T06:32:20;18.00;99.90
8862;DHT22;4799;50.996;4.754;2023-10-13T06:34:46;18.00;99.90
8862;DHT22;4799;50.996;4.754;2023-10-13T06:37:16;18.10;99.90
8862;DHT22;4799;50.996;4.754;2023-10-13T06:39:54;18.00;99.90
8862;DHT22;4799;50.996;4.754;2023-10-13T06:42:25;18.10;99.90
8862;DHT22;4799;50.996;4.754;2023-10-13T06:44:54;18.10;99.90
8862;DHT22;4799;50.996;4.754;2023-10-13T06:47:21;18.10;99.90
8862;DHT22;4799;50.996;4.754;2023-10-13T06:49:48;18.10;99.90
8862;DHT22;4799;50.996;4.754;2023-10-13T06:52:20;18.20;99.90
8862;DHT22;4799;50.996;4.754;2023-10-13T06:54:51;18.20;99.90
8862;DHT22;4799;50.996;4.754;2023-10-13T06:57:19;18.20;99.90
8862;DHT22;4799;50.996;4.754;2023-10-13T06:59:48;18.20;99.90
8862;DHT22;4799;50.996;4.754;2023-10-13T07:02:13;18.20;99.90
8862;DHT22;4799;50.996;4.754;2023-10-13T07:04:48;18.30;99.90
8862;DHT22;4799;50.996;4.754;2023-10-13T07:07:23;18.30;99.90
8862;DHT22;4799;50.996;4.754;2023-10-13T07:09:49;18.40;99.90
8862;DHT22;4799;50.996;4.754;2023-10-13T07:12:21;18.40;99.90
8862;DHT22;4799;50.996;4.754;2023-10-13T07:14:52;18.50;99.90
8862;DHT22;4799;50.996;4.754;2023-10-13T07:17:19;18.60;99.90
8862;DHT22;4799;50.996;4.754;2023-10-13T07:19:53;18.60;99.90
8862;DHT22;4799;50.996;4.754;2023-10-13T07:22:19;18.60;99.90
8862;DHT22;4799;50.996;4.754;2023-10-13T07:24:46;18.70;99.90
8862;DHT22;4799;50.996;4.754;2023-10-13T07:27:20;18.80;99.90
8862;DHT22;4799;50.996;4.754;2023-10-13T07:29:56;18.80;99.90
8862;DHT22;4799;50.996;4.754;2023-10-13T07:32:45;18.90;99.90
8862;DHT22;4799;50.996;4.754;2023-10-13T07:35:15;19.00;99.90
8862;DHT22;4799;50.996;4.754;2023-10-13T07:37:43;19.00;99.90
8862;DHT22;4799;50.996;4.754;2023-10-13T07:40:10;19.10;99.90
8862;DHT22;4799;50.996;4.754;2023-10-13T07:42:55;19.10;99.90
8862;DHT22;4799;50.996;4.754;2023-10-13T07:45:29;19.10;99.90
8862;DHT22;4799;50.996;4.754;2023-10-13T07:48:02;19.10;99.90
8862;DHT22;4799;50.996;4.754;2023-10-13T07:50:34;19.20;99.90
8862;DHT22;4799;50.996;4.754;2023-10-13T07:53:01;19.20;99.90
8862;DHT22;4799;50.996;4.754;2023-10-13T07:55:46;19.20;99.90
8862;DHT22;4799;50.996;4.754;2023-10-13T07:58:13;19.30;99.90
8862;DHT22;4799;50.996;4.754;2023-10-13T08:00:39;19.40;99.90
8862;DHT22;4799;50.996;4.754;2023-10-13T08:03:11;19.40;99.90
8862;DHT22;4799;50.996;4.754;2023-10-13T08:05:57;19.60;99.90
8862;DHT22;4799;50.996;4.754;2023-10-13T08:08:44;19.60;99.90
8862;DHT22;4799;50.996;4.754;2023-10-13T08:11:16;19.70;99.90
8862;DHT22;4799;50.996;4.754;2023-10-13T08:14:01;19.90;99.90
8862;DHT22;4799;50.996;4.754;2023-10-13T08:16:40;19.90;99.90
8862;DHT22;4799;50.996;4.754;2023-10-13T08:19:22;20.00;99.90
8862;DHT22;4799;50.996;4.754;2023-10-13T08:21:58;20.20;99.90
8862;DHT22;4799;50.996;4.754;2023-10-13T08:24:27;20.20;99.90
8862;DHT22;4799;50.996;4.754;2023-10-13T08:27:06;20.30;99.90
8862;DHT22;4799;50.996;4.754;2023-10-13T08:29:47;20.40;99.90
8862;DHT22;4799;50.996;4.754;2023-10-13T08:32:26;20.50;99.90
8862;DHT22;4799;50.996;4.754;2023-10-13T08:34:52;20.50;99.90
8862;DHT22;4799;50.996;4.754;2023-10-13T08:37:18;20.50;99.90
8862;DHT22;4799;50.996;4.754;2023-10-13T08:39:47;20.50;99.90
8862;DHT22;4799;50.996;4.754;2023-10-13T08:42:29;20.50;99.90
8862;DHT22;4799;50.996;4.754;2023-10-13T08:45:13;20.60;99.90
8862;DHT22;4799;50.996;4.754;2023-10-13T08:47:56;20.60;99.90
8862;DHT22;4799;50.996;4.754;2023-10-13T08:53:31;20.70;99.90
8862;DHT22;4799;50.996;4.754;2023-10-13T08:56:05;20.80;99.90
8862;DHT22;4799;50.996;4.754;2023-10-13T08:58:37;21.00;99.90
8862;DHT22;4799;50.996;4.754;2023-10-13T09:04:13;21.10;99.90
8862;DHT22;4799;50.996;4.754;2023-10-13T09:06:45;21.20;99.90
8862;DHT22;4799;50.996;4.754;2023-10-13T09:09:31;21.30;99.90
8862;DHT22;4799;50.996;4.754;2023-10-13T09:12:02;21.40;99.90
8862;DHT22;4799;50.996;4.754;2023-10-13T09:14:36;21.50;99.90
8862;DHT22;4799;50.996;4.754;2023-10-13T09:17:10;21.50;99.90
8862;DHT22;4799;50.996;4.754;2023-10-13T09:19:46;21.60;99.90
8862;DHT22;4799;50.996;4.754;2023-10-13T09:22:25;21.70;99.90
8862;DHT22;4799;50.996;4.754;2023-10-13T09:25:04;21.70;99.90
8862;DHT22;4799;50.996;4.754;2023-10-13T09:27:39;21.80;99.90
8862;DHT22;4799;50.996;4.754;2023-10-13T09:30:05;21.80;99.90
8862;DHT22;4799;50.996;4.754;2023-10-13T09:33:01;21.80;99.90
8862;DHT22;4799;50.996;4.754;2023-10-13T09:35:43;21.90;99.90
8862;DHT22;4799;50.996;4.754;2023-10-13T09:38:15;21.90;99.90
8862;DHT22;4799;50.996;4.754;2023-10-13T09:40:42;22.00;99.90
8862;DHT22;4799;50.996;4.754;2023-10-13T09:43:27;22.10;99.90
8862;DHT22;4799;50.996;4.754;2023-10-13T09:46:00;22.00;99.90
8862;DHT22;4799;50.996;4.754;2023-10-13T09:48:37;22.10;99.90
8862;DHT22;4799;50.996;4.754;2023-10-13T09:51:12;22.10;99.90
8862;DHT22;4799;50.996;4.754;2023-10-13T09:53:40;22.10;99.90
8862;DHT22;4799;50.996;4.754;2023-10-13T09:56:18;22.10;99.90
8862;DHT22;4799;50.996;4.754;2023-10-13T09:58:53;22.20;99.90
8862;DHT22;4799;50.996;4.754;2023-10-13T10:01:26;22.30;99.90
8862;DHT22;4799;50.996;4.754;2023-10-13T10:04:11;22.30;99.90
8862;DHT22;4799;50.996;4.754;2023-10-13T10:07:12;22.40;99.90
8862;DHT22;4799;50.996;4.754;2023-10-13T10:09:56;22.50;99.90
8862;DHT22;4799;50.996;4.754;2023-10-13T10:12:42;22.50;99.90
8862;DHT22;4799;50.996;4.754;2023-10-13T10:15:30;22.50;99.90
8862;DHT22;4799;50.996;4.754;2023-10-13T10:18:03;22.50;99.90
8862;DHT22;4799;50.996;4.754;2023-10-13T10:23:05;22.50;99.90
8862;DHT22;4799;50.996;4.754;2023-10-13T10:25:35;22.50;99.90
8862;DHT22;4799;50.996;4.754;2023-10-13T10:28:03;22.50;99.90
8862;DHT22;4799;50.996;4.754;2023-10-13T10:30:36;22.50;99.90
8862;DHT22;4799;50.996;4.754;2023-10-13T10:33:04;22.50;99.90
8862;DHT22;4799;50.996;4.754;2023-10-13T10:35:58;22.50;99.90
8862;DHT22;4799;50.996;4.754;2023-10-13T10:38:24;22.60;99.90
8862;DHT22;4799;50.996;4.754;2023-10-13T10:41:01;22.60;99.90
8862;DHT22;4799;50.996;4.754;2023-10-13T10:43:36;22.60;99.90
8862;DHT22;4799;50.996;4.754;2023-10-13T10:46:17;22.70;99.90
8862;DHT22;4799;50.996;4.754;2023-10-13T10:48:43;22.80;99.90
8862;DHT22;4799;50.996;4.754;2023-10-13T10:51:10;22.80;99.90
8862;DHT22;4799;50.996;4.754;2023-10-13T10:53:50;22.90;99.90
8862;DHT22;4799;50.996;4.754;2023-10-13T10:56:18;23.00;99.90
8862;DHT22;4799;50.996;4.754;2023-10-13T10:58:57;23.10;99.90
8862;DHT22;4799;50.996;4.754;2023-10-13T11:01:27;23.20;99.90
8862;DHT22;4799;50.996;4.754;2023-10-13T11:04:00;23.30;99.90
8862;DHT22;4799;50.996;4.754;2023-10-13T11:06:35;23.40;99.90
8862;DHT22;4799;50.996;4.754;2023-10-13T11:09:08;23.50;99.90
8862;DHT22;4799;50.996;4.754;2023-10-13T11:11:53;23.60;99.90
8862;DHT22;4799;50.996;4.754;2023-10-13T11:14:27;23.60;99.90
8862;DHT22;4799;50.996;4.754;2023-10-13T11:16:54;23.70;99.90
8862;DHT22;4799;50.996;4.754;2023-10-13T11:19:21;23.70;99.90
8862;DHT22;4799;50.996;4.754;2023-10-13T11:21:54;23.80;99.90
8862;DHT22;4799;50.996;4.754;2023-10-13T11:24:21;23.80;99.90
8862;DHT22;4799;50.996;4.754;2023-10-13T11:26:48;23.90;99.90
8862;DHT22;4799;50.996;4.754;2023-10-13T11:29:32;24.00;99.90
8862;DHT22;4799;50.996;4.754;2023-10-13T11:32:01;24.10;99.90
8862;DHT22;4799;50.996;4.754;2023-10-13T11:34:28;24.20;99.90
8862;DHT22;4799;50.996;4.754;2023-10-13T11:37:06;24.30;99.90
8862;DHT22;4799;50.996;4.754;2023-10-13T11:39:51;24.30;99.90
8862;DHT22;4799;50.996;4.754;2023-10-13T11:42:17;24.40;99.90
8862;DHT22;4799;50.996;4.754;2023-10-13T11:44:43;24.50;99.90
8862;DHT22;4799;50.996;4.754;2023-10-13T11:47:10;24.60;99.90
8862;DHT22;4799;50.996;4.754;2023-10-13T11:49:54;24.60;99.90
8862;DHT22;4799;50.996;4.754;2023-10-13T11:52:22;24.70;99.90
8862;DHT22;4799;50.996;4.754;2023-10-13T11:54:51;24.70;99.90
8862;DHT22;4799;50.996;4.754;2023-10-13T11:57:17;24.70;99.90
8862;DHT22;4799;50.996;4.754;2023-10-13T11:59:47;24.80;99.90
8862;DHT22;4799;50.996;4.754;2023-10-13T12:02:21;24.90;99.90
8862;DHT22;4799;50.996;4.754;2023-10-13T12:04:52;24.90;99.90
8862;DHT22;4799;50.996;4.754;2023-10-13T12:07:21;24.90;99.90
8862;DHT22;4799;50.996;4.754;2023-10-13T12:10:06;24.80;99.90
8862;DHT22;4799;50.996;4.754;2023-10-13T12:12:32;24.80;99.90
8862;DHT22;4799;50.996;4.754;2023-10-13T12:15:06;24.80;99.90
8862;DHT22;4799;50.996;4.754;2023-10-13T12:17:39;24.80;99.90
8862;DHT22;4799;50.996;4.754;2023-10-13T12:20:06;24.80;99.90
8862;DHT22;4799;50.996;4.754;2023-10-13T12:22:37;24.80;99.90
8862;DHT22;4799;50.996;4.754;2023-10-13T12:25:11;24.80;99.90
8862;DHT22;4799;50.996;4.754;2023-10-13T12:27:55;24.80;99.90
8862;DHT22;4799;50.996;4.754;2023-10-13T12:30:31;24.70;99.90
8862;DHT22;4799;50.996;4.754;2023-10-13T12:33:18;24.60;99.90
8862;DHT22;4799;50.996;4.754;2023-10-13T12:36:00;24.50;99.90
8862;DHT22;4799;50.996;4.754;2023-10-13T12:38:49;24.50;99.90
8862;DHT22;4799;50.996;4.754;2023-10-13T12:41:15;24.40;99.90
8862;DHT22;4799;50.996;4.754;2023-10-13T12:43:59;24.40;99.90
8862;DHT22;4799;50.996;4.754;2023-10-13T12:46:44;24.20;99.90
8862;DHT22;4799;50.996;4.754;2023-10-13T12:49:28;24.10;99.90
8862;DHT22;4799;50.996;4.754;2023-10-13T12:52:09;24.00;99.90
8862;DHT22;4799;50.996;4.754;2023-10-13T12:54:57;24.00;99.90
8862;DHT22;4799;50.996;4.754;2023-10-13T12:57:27;23.90;99.90
8862;DHT22;4799;50.996;4.754;2023-10-13T12:59:54;23.80;99.90
8862;DHT22;4799;50.996;4.754;2023-10-13T13:02:24;23.80;99.90
8862;DHT22;4799;50.996;4.754;2023-10-13T13:04:54;23.80;99.90
8862;DHT22;4799;50.996;4.754;2023-10-13T13:07:24;23.80;99.90
8862;DHT22;4799;50.996;4.754;2023-10-13T13:09:55;23.90;99.90
8862;DHT22;4799;50.996;4.754;2023-10-13T13:12:26;23.90;99.90
8862;DHT22;4799;50.996;4.754;2023-10-13T13:14:54;23.90;99.90
8862;DHT22;4799;50.996;4.754;2023-10-13T13:17:23;24.00;99.90
8862;DHT22;4799;50.996;4.754;2023-10-13T13:19:49;24.10;99.90
8862;DHT22;4799;50.996;4.754;2023-10-13T13:22:15;24.10;99.90
8862;DHT22;4799;50.996;4.754;2023-10-13T13:24:44;24.10;99.90
8862;DHT22;4799;50.996;4.754;2023-10-13T13:27:14;24.10;99.90
8862;DHT22;4799;50.996;4.754;2023-10-13T13:29:44;24.20;99.90
8862;DHT22;4799;50.996;4.754;2023-10-13T13:32:10;24.20;99.90
8862;DHT22;4799;50.996;4.754;2023-10-13T13:34:50;24.30;99.90
8862;DHT22;4799;50.996;4.754;2023-10-13T13:37:44;24.30;99.90
8862;DHT22;4799;50.996;4.754;2023-10-13T13:40:10;24.30;99.90
8862;DHT22;4799;50.996;4.754;2023-10-13T13:42:41;24.30;99.90
8862;DHT22;4799;50.996;4.754;2023-10-13T13:45:15;24.30;99.90
8862;DHT22;4799;50.996;4.754;2023-10-13T13:47:50;24.30;99.90
8862;DHT22;4799;50.996;4.754;2023-10-13T13:50:28;24.20;99.90
8862;DHT22;4799;50.996;4.754;2023-10-13T13:52:55;24.20;99.90
8862;DHT22;4799;50.996;4.754;2023-10-13T13:55:25;24.20;99.90
8862;DHT22;4799;50.996;4.754;2023-10-13T13:57:56;24.20;99.90
8862;DHT22;4799;50.996;4.754;2023-10-13T14:00:21;24.40;99.90
8862;DHT22;4799;50.996;4.754;2023-10-13T14:03:06;24.40;99.90
8862;DHT22;4799;50.996;4.754;2023-10-13T14:05:41;24.40;99.90
8862;DHT22;4799;50.996;4.754;2023-10-13T14:08:07;24.40;99.90
8862;DHT22;4799;50.996;4.754;2023-10-13T14:10:38;24.30;99.90
8862;DHT22;4799;50.996;4.754;2023-10-13T14:13:24;24.30;99.90
8862;DHT22;4799;50.996;4.754;2023-10-13T14:16:10;24.30;99.90
8862;DHT22;4799;50.996;4.754;2023-10-13T14:18:46;24.30;99.90
8862;DHT22;4799;50.996;4.754;2023-10-13T14:21:12;24.20;99.90
8862;DHT22;4799;50.996;4.754;2023-10-13T14:23:48;24.20;99.90
8862;DHT22;4799;50.996;4.754;2023-10-13T14:26:20;24.20;99.90
8862;DHT22;4799;50.996;4.754;2023-10-13T14:28:55;24.30;99.90
8862;DHT22;4799;50.996;4.754;2023-10-13T14:31:40;24.30;99.90
8862;DHT22;4799;50.996;4.754;2023-10-13T14:34:07;24.30;99.90
8862;DHT22;4799;50.996;4.754;2023-10-13T14:36:33;24.30;99.90
8862;DHT22;4799;50.996;4.754;2023-10-13T14:39:04;24.20;99.90
8862;DHT22;4799;50.996;4.754;2023-10-13T14:41:35;24.20;99.90
8862;DHT22;4799;50.996;4.754;2023-10-13T14:44:01;24.10;99.90
8862;DHT22;4799;50.996;4.754;2023-10-13T14:46:31;24.00;99.90
8862;DHT22;4799;50.996;4.754;2023-10-13T14:48:57;23.90;99.90
8862;DHT22;4799;50.996;4.754;2023-10-13T14:51:23;23.80;99.90
8862;DHT22;4799;50.996;4.754;2023-10-13T14:53:51;23.80;99.90
8862;DHT22;4799;50.996;4.754;2023-10-13T14:56:22;23.70;99.90
8862;DHT22;4799;50.996;4.754;2023-10-13T14:58:51;23.60;99.90
8862;DHT22;4799;50.996;4.754;2023-10-13T15:01:22;23.60;99.90
8862;DHT22;4799;50.996;4.754;2023-10-13T15:03:54;23.50;99.90
8862;DHT22;4799;50.996;4.754;2023-10-13T15:06:25;23.50;99.90
8862;DHT22;4799;50.996;4.754;2023-10-13T15:08:56;23.30;99.90
8862;DHT22;4799;50.996;4.754;2023-10-13T15:11:22;23.30;99.90
8862;DHT22;4799;50.996;4.754;2023-10-13T15:14:04;23.30;99.90
8862;DHT22;4799;50.996;4.754;2023-10-13T15:16:33;23.20;99.90
8862;DHT22;4799;50.996;4.754;2023-10-13T15:19:02;23.10;99.90
8862;DHT22;4799;50.996;4.754;2023-10-13T15:21:32;23.10;99.90
8862;DHT22;4799;50.996;4.754;2023-10-13T15:24:04;23.00;99.90
8862;DHT22;4799;50.996;4.754;2023-10-13T15:26:45;22.90;99.90
8862;DHT22;4799;50.996;4.754;2023-10-13T15:29:19;22.80;99.90
8862;DHT22;4799;50.996;4.754;2023-10-13T15:31:51;22.70;99.90
8862;DHT22;4799;50.996;4.754;2023-10-13T15:34:40;22.60;99.90
8862;DHT22;4799;50.996;4.754;2023-10-13T15:37:06;22.60;99.90
8862;DHT22;4799;50.996;4.754;2023-10-13T15:39:31;22.50;99.90
8862;DHT22;4799;50.996;4.754;2023-10-13T15:41:58;22.50;99.90
8862;DHT22;4799;50.996;4.754;2023-10-13T15:44:28;22.40;99.90
8862;DHT22;4799;50.996;4.754;2023-10-13T15:46:57;22.40;99.90
8862;DHT22;4799;50.996;4.754;2023-10-13T15:49:25;22.20;99.90
8862;DHT22;4799;50.996;4.754;2023-10-13T15:51:53;22.10;99.90
8862;DHT22;4799;50.996;4.754;2023-10-13T15:54:21;22.00;99.90
8862;DHT22;4799;50.996;4.754;2023-10-13T15:56:50;22.00;99.90
8862;DHT22;4799;50.996;4.754;2023-10-13T15:59:20;22.00;99.90
8862;DHT22;4799;50.996;4.754;2023-10-13T16:01:48;21.90;99.90
8862;DHT22;4799;50.996;4.754;2023-10-13T16:04:20;21.90;99.90
8862;DHT22;4799;50.996;4.754;2023-10-13T16:06:46;21.90;99.90
8862;DHT22;4799;50.996;4.754;2023-10-13T16:09:13;21.90;99.90
8862;DHT22;4799;50.996;4.754;2023-10-13T16:11:43;21.90;99.90
8862;DHT22;4799;50.996;4.754;2023-10-13T16:14:13;21.80;99.90
8862;DHT22;4799;50.996;4.754;2023-10-13T16:16:50;21.90;99.90
8862;DHT22;4799;50.996;4.754;2023-10-13T16:19:20;21.90;99.90
8862;DHT22;4799;50.996;4.754;2023-10-13T16:21:48;21.80;99.90
8862;DHT22;4799;50.996;4.754;2023-10-13T16:24:14;21.80;99.90
8862;DHT22;4799;50.996;4.754;2023-10-13T16:26:46;21.80;99.90
8862;DHT22;4799;50.996;4.754;2023-10-13T16:29:18;21.80;99.90
8862;DHT22;4799;50.996;4.754;2023-10-13T16:31:45;21.70;99.90
8862;DHT22;4799;50.996;4.754;2023-10-13T16:34:15;21.60;99.90
8862;DHT22;4799;50.996;4.754;2023-10-13T16:36:46;21.40;99.90
8862;DHT22;4799;50.996;4.754;2023-10-13T16:39:13;21.10;99.90
8862;DHT22;4799;50.996;4.754;2023-10-13T16:41:42;20.90;99.90
8862;DHT22;4799;50.996;4.754;2023-10-13T16:44:10;20.70;99.90
8862;DHT22;4799;50.996;4.754;2023-10-13T16:46:37;20.60;99.90
8862;DHT22;4799;50.996;4.754;2023-10-13T16:49:03;20.50;99.90
8862;DHT22;4799;50.996;4.754;2023-10-13T16:51:29;20.50;99.90
8862;DHT22;4799;50.996;4.754;2023-10-13T16:53:55;20.50;99.90
8862;DHT22;4799;50.996;4.754;2023-10-13T16:56:24;20.50;99.90
8862;DHT22;4799;50.996;4.754;2023-10-13T16:58:50;20.50;99.90
8862;DHT22;4799;50.996;4.754;2023-10-13T17:01:20;20.40;99.90